PWSweather.com
Personal Weather Stations
Station Observations
IMAZOWIE6
WarszawaPL

WarszawaPL

Lat: 52.27957, Lon: 21.05489

Elevation: 100

Station Type: WS1080

http://stacjapogody.waw.pl/

High Low Average
Temperature 37.4°F3.0°C 35.1°F1.7°C 36.4°F2.4°C
Dew Point -2.7°F-19.3°C -169.3°F-111.8°C -45.6°F-43.1°C
Winds 2.8 mph 4.5 kmh Calm Calm Calm NCalm N
Wind Gusts 6.2 mph10.0 kmh -- 1.0 mph1.6 kmh
Humidity 18% 10% 15%
Pressure 29.40 in995.6 mb 29.13 in986.5 mb -
Precipitation 0.00 in0.0 mm - -
Hour Temp Dew Point Humidity Winds Wind Gusts Pressure Precip Precip Rate Daily Precip Total
12:01 AM 36.1°F2.3°C -7.2°F-21.8°C 15% 0.6 mph N1.0 kmh N 2.0 mph3.2 kmh 29.14 in986.8 mb 0.00 in0.0 mm 0.00 in0.0 mm 0.00 in0.0 mm
12:16 AM 36.1°F2.3°C -7.2°F-21.8°C 15% Calm Calm 1.4 mph2.3 kmh 29.15 in987.1 mb 0.00 in0.0 mm 0.00 in0.0 mm 0.00 in0.0 mm
12:31 AM 36.0°F2.2°C -7.4°F-21.9°C 15% Calm Calm 1.4 mph2.3 kmh 29.13 in986.5 mb 0.00 in0.0 mm 0.00 in0.0 mm 0.00 in0.0 mm
12:46 AM 35.8°F2.1°C -7.5°F-21.9°C 15% Calm Calm 0.6 mph1.0 kmh 29.13 in986.5 mb 0.00 in0.0 mm 0.00 in0.0 mm 0.00 in0.0 mm
01:01 AM 36.0°F2.2°C -7.4°F-21.9°C 15% Calm Calm -- 29.13 in986.5 mb 0.00 in0.0 mm 0.00 in0.0 mm 0.00 in0.0 mm
01:16 AM 36.0°F2.2°C -7.4°F-21.9°C 15% Calm Calm 0.6 mph1.0 kmh 29.14 in986.8 mb 0.00 in0.0 mm 0.00 in0.0 mm 0.00 in0.0 mm
01:31 AM 36.0°F2.2°C -7.4°F-21.9°C 15% Calm Calm -- 29.13 in986.5 mb 0.00 in0.0 mm 0.00 in0.0 mm 0.00 in0.0 mm
01:46 AM 36.0°F2.2°C -7.4°F-21.9°C 15% Calm Calm -- 29.14 in986.8 mb 0.00 in0.0 mm 0.00 in0.0 mm 0.00 in0.0 mm
02:01 AM 36.1°F2.3°C -5.9°F-21.1°C 16% Calm Calm -- 29.14 in986.8 mb 0.00 in0.0 mm 0.00 in0.0 mm 0.00 in0.0 mm
02:16 AM 36.0°F2.2°C -6.0°F-21.1°C 16% Calm Calm -- 29.14 in986.8 mb 0.00 in0.0 mm 0.00 in0.0 mm 0.00 in0.0 mm
02:31 AM 36.1°F2.3°C -5.9°F-21.1°C 16% Calm Calm -- 29.14 in986.8 mb 0.00 in0.0 mm 0.00 in0.0 mm 0.00 in0.0 mm
02:46 AM 36.5°F2.5°C -5.6°F-20.9°C 16% Calm Calm -- 29.15 in987.1 mb 0.00 in0.0 mm 0.00 in0.0 mm 0.00 in0.0 mm
03:01 AM 36.3°F2.4°C -4.5°F-20.3°C 17% Calm Calm 1.4 mph2.3 kmh 29.16 in987.5 mb 0.00 in0.0 mm 0.00 in0.0 mm 0.00 in0.0 mm
03:16 AM 36.7°F2.6°C -4.2°F-20.1°C 17% Calm Calm -- 29.15 in987.1 mb 0.00 in0.0 mm 0.00 in0.0 mm 0.00 in0.0 mm
03:31 AM 36.5°F2.5°C -4.4°F-20.2°C 17% Calm Calm -- 29.15 in987.1 mb 0.00 in0.0 mm 0.00 in0.0 mm 0.00 in0.0 mm
03:46 AM 36.7°F2.6°C -4.2°F-20.1°C 17% Calm Calm -- 29.15 in987.1 mb 0.00 in0.0 mm 0.00 in0.0 mm 0.00 in0.0 mm
04:01 AM 36.9°F2.7°C -4.1°F-20.1°C 17% 0.6 mph N1.0 kmh N 2.0 mph3.2 kmh 29.14 in986.8 mb 0.00 in0.0 mm 0.00 in0.0 mm 0.00 in0.0 mm
04:16 AM 36.7°F2.6°C -4.2°F-20.1°C 17% 0.6 mph N1.0 kmh N 1.4 mph2.3 kmh 29.14 in986.8 mb 0.00 in0.0 mm 0.00 in0.0 mm 0.00 in0.0 mm
04:31 AM 36.5°F2.5°C -4.4°F-20.2°C 17% Calm Calm 2.0 mph3.2 kmh 29.15 in987.1 mb 0.00 in0.0 mm 0.00 in0.0 mm 0.00 in0.0 mm
04:46 AM 36.5°F2.5°C -4.4°F-20.2°C 17% Calm Calm -- 29.15 in987.1 mb 0.00 in0.0 mm 0.00 in0.0 mm 0.00 in0.0 mm
05:01 AM 36.5°F2.5°C -4.4°F-20.2°C 17% Calm Calm 0.6 mph1.0 kmh 29.15 in987.1 mb 0.00 in0.0 mm 0.00 in0.0 mm 0.00 in0.0 mm
05:16 AM 36.3°F2.4°C -4.5°F-20.3°C 17% Calm Calm 0.6 mph1.0 kmh 29.15 in987.1 mb 0.00 in0.0 mm 0.00 in0.0 mm 0.00 in0.0 mm
05:31 AM 36.3°F2.4°C -4.5°F-20.3°C 17% Calm Calm -- 29.15 in987.1 mb 0.00 in0.0 mm 0.00 in0.0 mm 0.00 in0.0 mm
05:46 AM 36.3°F2.4°C -4.5°F-20.3°C 17% Calm Calm 0.6 mph1.0 kmh 29.13 in986.5 mb 0.00 in0.0 mm 0.00 in0.0 mm 0.00 in0.0 mm
06:01 AM 36.1°F2.3°C -4.7°F-20.4°C 17% Calm Calm -- 29.13 in986.5 mb 0.00 in0.0 mm 0.00 in0.0 mm 0.00 in0.0 mm
06:16 AM 36.0°F2.2°C -4.8°F-20.4°C 17% Calm Calm -- 29.14 in986.8 mb 0.00 in0.0 mm 0.00 in0.0 mm 0.00 in0.0 mm
06:31 AM 36.0°F2.2°C -4.8°F-20.4°C 17% Calm Calm -- 29.13 in986.5 mb 0.00 in0.0 mm 0.00 in0.0 mm 0.00 in0.0 mm
06:46 AM 36.0°F2.2°C -4.8°F-20.4°C 17% Calm Calm -- 29.14 in986.8 mb 0.00 in0.0 mm 0.00 in0.0 mm 0.00 in0.0 mm
07:01 AM 35.8°F2.1°C -4.9°F-20.5°C 17% Calm Calm 0.6 mph1.0 kmh 29.14 in986.8 mb 0.00 in0.0 mm 0.00 in0.0 mm 0.00 in0.0 mm
07:16 AM 35.8°F2.1°C -4.9°F-20.5°C 17% Calm Calm 0.6 mph1.0 kmh 29.15 in987.1 mb 0.00 in0.0 mm 0.00 in0.0 mm 0.00 in0.0 mm
07:31 AM 36.0°F2.2°C -4.8°F-20.4°C 17% Calm Calm 0.6 mph1.0 kmh 29.15 in987.1 mb 0.00 in0.0 mm 0.00 in0.0 mm 0.00 in0.0 mm
07:46 AM 36.0°F2.2°C -4.8°F-20.4°C 17% Calm Calm 0.6 mph1.0 kmh 29.15 in987.1 mb 0.00 in0.0 mm 0.00 in0.0 mm 0.00 in0.0 mm
08:01 AM 36.0°F2.2°C -4.8°F-20.4°C 17% Calm Calm 0.6 mph1.0 kmh 29.15 in987.1 mb 0.00 in0.0 mm 0.00 in0.0 mm 0.00 in0.0 mm
08:16 AM 35.6°F2.0°C -5.1°F-20.6°C 17% Calm Calm 0.6 mph1.0 kmh 29.16 in987.5 mb 0.00 in0.0 mm 0.00 in0.0 mm 0.00 in0.0 mm
08:31 AM 35.8°F2.1°C -4.9°F-20.5°C 17% Calm Calm 0.6 mph1.0 kmh 29.17 in987.8 mb 0.00 in0.0 mm 0.00 in0.0 mm 0.00 in0.0 mm
08:46 AM 35.8°F2.1°C -4.9°F-20.5°C 17% Calm Calm -- 29.18 in988.1 mb 0.00 in0.0 mm 0.00 in0.0 mm 0.00 in0.0 mm
09:01 AM 35.8°F2.1°C -4.9°F-20.5°C 17% Calm Calm -- 29.18 in988.1 mb 0.00 in0.0 mm 0.00 in0.0 mm 0.00 in0.0 mm
09:16 AM 36.0°F2.2°C -4.8°F-20.4°C 17% Calm Calm -- 29.18 in988.1 mb 0.00 in0.0 mm 0.00 in0.0 mm 0.00 in0.0 mm
09:31 AM 36.0°F2.2°C -4.8°F-20.4°C 17% Calm Calm -- 29.19 in988.5 mb 0.00 in0.0 mm 0.00 in0.0 mm 0.00 in0.0 mm
09:46 AM 36.1°F2.3°C -3.5°F-19.7°C 18% Calm Calm -- 29.19 in988.5 mb 0.00 in0.0 mm 0.00 in0.0 mm 0.00 in0.0 mm
10:01 AM 36.1°F2.3°C -3.5°F-19.7°C 18% Calm Calm -- 29.18 in988.1 mb 0.00 in0.0 mm 0.00 in0.0 mm 0.00 in0.0 mm
10:16 AM 36.1°F2.3°C -3.5°F-19.7°C 18% Calm Calm -- 29.18 in988.1 mb 0.00 in0.0 mm 0.00 in0.0 mm 0.00 in0.0 mm
10:31 AM 36.1°F2.3°C -3.5°F-19.7°C 18% Calm Calm -- 29.19 in988.5 mb 0.00 in0.0 mm 0.00 in0.0 mm 0.00 in0.0 mm
10:46 AM 36.9°F2.7°C -2.9°F-19.4°C 18% Calm Calm 0.6 mph1.0 kmh 29.19 in988.5 mb 0.00 in0.0 mm 0.00 in0.0 mm 0.00 in0.0 mm
11:01 AM 36.9°F2.7°C -2.9°F-19.4°C 18% Calm Calm -- 29.18 in988.1 mb 0.00 in0.0 mm 0.00 in0.0 mm 0.00 in0.0 mm
11:16 AM 36.5°F2.5°C -4.4°F-20.2°C 17% Calm Calm 2.0 mph3.2 kmh 29.18 in988.1 mb 0.00 in0.0 mm 0.00 in0.0 mm 0.00 in0.0 mm
11:31 AM 36.7°F2.6°C -4.2°F-20.1°C 17% Calm Calm 0.6 mph1.0 kmh 29.18 in988.1 mb 0.00 in0.0 mm 0.00 in0.0 mm 0.00 in0.0 mm
11:46 AM 37.0°F2.8°C -2.7°F-19.3°C 18% Calm Calm 0.6 mph1.0 kmh 29.18 in988.1 mb 0.00 in0.0 mm 0.00 in0.0 mm 0.00 in0.0 mm
12:01 PM 36.9°F2.7°C -4.1°F-20.1°C 17% Calm Calm 0.6 mph1.0 kmh 29.18 in988.1 mb 0.00 in0.0 mm 0.00 in0.0 mm 0.00 in0.0 mm
12:16 PM 36.9°F2.7°C -4.1°F-20.1°C 17% Calm Calm 0.6 mph1.0 kmh 29.19 in988.5 mb 0.00 in0.0 mm 0.00 in0.0 mm 0.00 in0.0 mm
12:31 PM 36.7°F2.6°C -5.5°F-20.8°C 16% Calm Calm 0.6 mph1.0 kmh 29.19 in988.5 mb 0.00 in0.0 mm 0.00 in0.0 mm 0.00 in0.0 mm
12:46 PM 36.7°F2.6°C -5.5°F-20.8°C 16% Calm Calm 0.6 mph1.0 kmh 29.20 in988.8 mb 0.00 in0.0 mm 0.00 in0.0 mm 0.00 in0.0 mm
01:01 PM 37.0°F2.8°C -5.2°F-20.7°C 16% Calm Calm 0.6 mph1.0 kmh 29.20 in988.8 mb 0.00 in0.0 mm 0.00 in0.0 mm 0.00 in0.0 mm
01:16 PM 37.0°F2.8°C -6.5°F-21.4°C 15% Calm Calm -- 29.20 in988.8 mb 0.00 in0.0 mm 0.00 in0.0 mm 0.00 in0.0 mm
01:31 PM 37.2°F2.9°C -6.3°F-21.3°C 15% Calm Calm 0.6 mph1.0 kmh 29.21 in989.2 mb 0.00 in0.0 mm 0.00 in0.0 mm 0.00 in0.0 mm
01:46 PM 37.2°F2.9°C -6.3°F-21.3°C 15% Calm Calm 0.6 mph1.0 kmh 29.21 in989.2 mb 0.00 in0.0 mm 0.00 in0.0 mm 0.00 in0.0 mm
02:01 PM 37.4°F3.0°C -7.6°F-22.0°C 14% Calm Calm 0.6 mph1.0 kmh 29.21 in989.2 mb 0.00 in0.0 mm 0.00 in0.0 mm 0.00 in0.0 mm
02:16 PM 37.2°F2.9°C -7.7°F-22.1°C 14% Calm Calm -- 29.22 in989.5 mb 0.00 in0.0 mm 0.00 in0.0 mm 0.00 in0.0 mm
02:31 PM 37.0°F2.8°C -9.4°F-23.0°C 13% Calm Calm -- 29.23 in989.8 mb 0.00 in0.0 mm 0.00 in0.0 mm 0.00 in0.0 mm
02:46 PM 37.2°F2.9°C -9.2°F-22.9°C 13% Calm Calm 2.0 mph3.2 kmh 29.24 in990.2 mb 0.00 in0.0 mm 0.00 in0.0 mm 0.00 in0.0 mm
03:01 PM 37.2°F2.9°C -10.8°F-23.8°C 12% 0.6 mph N1.0 kmh N 2.8 mph4.5 kmh 29.24 in990.2 mb 0.00 in0.0 mm 0.00 in0.0 mm 0.00 in0.0 mm
03:16 PM 37.0°F2.8°C -11.0°F-23.9°C 12% Calm Calm 0.6 mph1.0 kmh 29.25 in990.5 mb 0.00 in0.0 mm 0.00 in0.0 mm 0.00 in0.0 mm
03:31 PM 36.9°F2.7°C -12.8°F-24.9°C 11% Calm Calm 0.6 mph1.0 kmh 29.26 in990.9 mb 0.00 in0.0 mm 0.00 in0.0 mm 0.00 in0.0 mm
03:46 PM 37.0°F2.8°C -12.7°F-24.8°C 11% Calm Calm -- 29.26 in990.9 mb 0.00 in0.0 mm 0.00 in0.0 mm 0.00 in0.0 mm
04:01 PM 36.7°F2.6°C -12.9°F-24.9°C 11% Calm Calm 0.6 mph1.0 kmh 29.26 in990.9 mb 0.00 in0.0 mm 0.00 in0.0 mm 0.00 in0.0 mm
04:16 PM 37.0°F2.8°C -12.7°F-24.8°C 11% Calm Calm 2.0 mph3.2 kmh 29.27 in991.2 mb 0.00 in0.0 mm 0.00 in0.0 mm 0.00 in0.0 mm
04:31 PM 37.4°F3.0°C -12.4°F-24.7°C 11% Calm Calm 1.4 mph2.3 kmh 29.27 in991.2 mb 0.00 in0.0 mm 0.00 in0.0 mm 0.00 in0.0 mm
04:46 PM 36.9°F2.7°C -12.8°F-24.9°C 11% Calm Calm 1.4 mph2.3 kmh 29.28 in991.5 mb 0.00 in0.0 mm 0.00 in0.0 mm 0.00 in0.0 mm
05:01 PM 36.9°F2.7°C -14.7°F-25.9°C 10% 0.6 mph N1.0 kmh N 2.0 mph3.2 kmh 29.29 in991.9 mb 0.00 in0.0 mm 0.00 in0.0 mm 0.00 in0.0 mm
05:16 PM 36.9°F2.7°C -14.7°F-25.9°C 10% 0.6 mph N1.0 kmh N 2.0 mph3.2 kmh 29.29 in991.9 mb 0.00 in0.0 mm 0.00 in0.0 mm 0.00 in0.0 mm
05:31 PM 36.5°F2.5°C -14.9°F-26.1°C 10% Calm Calm 0.6 mph1.0 kmh 29.30 in992.2 mb 0.00 in0.0 mm 0.00 in0.0 mm 0.00 in0.0 mm
05:46 PM 36.5°F2.5°C -14.9°F-26.1°C 10% Calm Calm 0.6 mph1.0 kmh 29.30 in992.2 mb 0.00 in0.0 mm 0.00 in0.0 mm 0.00 in0.0 mm
06:01 PM 36.5°F2.5°C -14.9°F-26.1°C 10% Calm Calm 2.0 mph3.2 kmh 29.31 in992.6 mb 0.00 in0.0 mm 0.00 in0.0 mm 0.00 in0.0 mm
06:16 PM 36.5°F2.5°C -169.2°F-111.8°C - 0.6 mph N1.0 kmh N 2.0 mph3.2 kmh 29.32 in992.9 mb 0.00 in0.0 mm 0.00 in0.0 mm 0.00 in0.0 mm
06:31 PM 36.3°F2.4°C -169.2°F-111.8°C - 1.4 mph N2.3 kmh N 3.4 mph5.5 kmh 29.33 in993.2 mb 0.00 in0.0 mm 0.00 in0.0 mm 0.00 in0.0 mm
06:46 PM 35.4°F1.9°C -169.3°F-111.8°C - Calm Calm 1.4 mph2.3 kmh 29.33 in993.2 mb 0.00 in0.0 mm 0.00 in0.0 mm 0.00 in0.0 mm
07:01 PM 35.2°F1.8°C -169.3°F-111.8°C - Calm Calm 1.4 mph2.3 kmh 29.34 in993.6 mb 0.00 in0.0 mm 0.00 in0.0 mm 0.00 in0.0 mm
07:16 PM 35.1°F1.7°C -169.3°F-111.8°C - Calm Calm 1.4 mph2.3 kmh 29.34 in993.6 mb 0.00 in0.0 mm 0.00 in0.0 mm 0.00 in0.0 mm
07:31 PM 35.4°F1.9°C -169.3°F-111.8°C - 0.6 mph N1.0 kmh N 2.0 mph3.2 kmh 29.34 in993.6 mb 0.00 in0.0 mm 0.00 in0.0 mm 0.00 in0.0 mm
07:46 PM 35.4°F1.9°C -169.3°F-111.8°C - 0.6 mph N1.0 kmh N 1.4 mph2.3 kmh 29.35 in993.9 mb 0.00 in0.0 mm 0.00 in0.0 mm 0.00 in0.0 mm
08:01 PM 35.6°F2.0°C -169.2°F-111.8°C - 0.6 mph N1.0 kmh N 2.8 mph4.5 kmh 29.35 in993.9 mb 0.00 in0.0 mm 0.00 in0.0 mm 0.00 in0.0 mm
08:16 PM 35.8°F2.1°C -169.2°F-111.8°C - 1.4 mph N2.3 kmh N 2.8 mph4.5 kmh 29.35 in993.9 mb 0.00 in0.0 mm 0.00 in0.0 mm 0.00 in0.0 mm
08:31 PM 36.0°F2.2°C -169.2°F-111.8°C - 0.6 mph N1.0 kmh N 2.8 mph4.5 kmh 29.35 in993.9 mb 0.00 in0.0 mm 0.00 in0.0 mm 0.00 in0.0 mm
08:46 PM 36.0°F2.2°C -169.2°F-111.8°C - 0.6 mph N1.0 kmh N 3.4 mph5.5 kmh 29.35 in993.9 mb 0.00 in0.0 mm 0.00 in0.0 mm 0.00 in0.0 mm
09:01 PM 36.1°F2.3°C -169.2°F-111.8°C - 1.4 mph N2.3 kmh N 3.4 mph5.5 kmh 29.36 in994.2 mb 0.00 in0.0 mm 0.00 in0.0 mm 0.00 in0.0 mm
09:16 PM 36.1°F2.3°C -169.2°F-111.8°C - 2.8 mph N4.5 kmh N 6.2 mph10.0 kmh 29.37 in994.6 mb 0.00 in0.0 mm 0.00 in0.0 mm 0.00 in0.0 mm
09:31 PM 36.3°F2.4°C -169.2°F-111.8°C - 2.0 mph N3.2 kmh N 3.4 mph5.5 kmh 29.37 in994.6 mb 0.00 in0.0 mm 0.00 in0.0 mm 0.00 in0.0 mm
09:46 PM 36.3°F2.4°C -169.2°F-111.8°C - 1.4 mph N2.3 kmh N 4.0 mph6.4 kmh 29.37 in994.6 mb 0.00 in0.0 mm 0.00 in0.0 mm 0.00 in0.0 mm
10:01 PM 36.3°F2.4°C -169.2°F-111.8°C - 0.6 mph N1.0 kmh N 2.8 mph4.5 kmh 29.37 in994.6 mb 0.00 in0.0 mm 0.00 in0.0 mm 0.00 in0.0 mm
10:16 PM 36.3°F2.4°C -169.2°F-111.8°C - Calm Calm 1.4 mph2.3 kmh 29.38 in994.9 mb 0.00 in0.0 mm 0.00 in0.0 mm 0.00 in0.0 mm
10:31 PM 36.5°F2.5°C -169.2°F-111.8°C - 1.4 mph N2.3 kmh N 2.8 mph4.5 kmh 29.38 in994.9 mb 0.00 in0.0 mm 0.00 in0.0 mm 0.00 in0.0 mm
10:46 PM 36.3°F2.4°C -169.2°F-111.8°C - 0.6 mph N1.0 kmh N 1.4 mph2.3 kmh 29.39 in995.3 mb 0.00 in0.0 mm 0.00 in0.0 mm 0.00 in0.0 mm
11:01 PM 36.5°F2.5°C -169.2°F-111.8°C - 1.4 mph N2.3 kmh N 2.0 mph3.2 kmh 29.40 in995.6 mb 0.00 in0.0 mm 0.00 in0.0 mm 0.00 in0.0 mm
11:16 PM 36.5°F2.5°C -169.2°F-111.8°C - 0.6 mph N1.0 kmh N 2.8 mph4.5 kmh 29.40 in995.6 mb 0.00 in0.0 mm 0.00 in0.0 mm 0.00 in0.0 mm
11:31 PM 36.7°F2.6°C -169.1°F-111.7°C - 0.6 mph N1.0 kmh N 1.4 mph2.3 kmh 29.40 in995.6 mb 0.00 in0.0 mm 0.00 in0.0 mm 0.00 in0.0 mm
11:46 PM 36.9°F2.7°C -169.1°F-111.7°C - Calm Calm 1.4 mph2.3 kmh 29.40 in995.6 mb 0.00 in0.0 mm 0.00 in0.0 mm 0.00 in0.0 mm